Time;durP1;ratioP1;P1;durP2;ratioP2;P2;SDS_P1;SDS_P2;PMS_P1;PMS_P2;Temp;Humidity;BMP_temperature;BMP_pressure;BME280_temperature;BME280_humidity;BME280_pressure;Samples;Min_cycle;Max_cycle;Signal;HPM_P1;HPM_P2
2024/02/07 00:00:03;;;;;;;231.60;59.13;;;;;;;;;;4992949;28;20707;-44
2024/02/07 00:02:29;;;;;;;230.93;59.45;;;;;;;;;;4991073;28;20193;-43
2024/02/07 00:04:55;;;;;;;230.40;59.60;;;;;;;;;;4993685;28;20261;-44
2024/02/07 00:07:21;;;;;;;229.60;58.97;;;;;;;;;;4993936;28;20404;-43
2024/02/07 00:09:47;;;;;;;229.37;59.03;;;;;;;;;;4993958;28;20806;-44
2024/02/07 00:12:13;;;;;;;228.97;58.40;;;;;;;;;;4993131;28;20881;-43
2024/02/07 00:14:39;;;;;;;229.10;58.00;;;;;;;;;;4993731;28;20696;-43
2024/02/07 00:17:05;;;;;;;230.87;60.70;;;;;;;;;;4993919;28;20237;-44
2024/02/07 00:19:31;;;;;;;228.30;57.93;;;;;;;;;;4993935;28;20455;-44
2024/02/07 00:21:56;;;;;;;229.17;59.10;;;;;;;;;;4992782;28;20436;-44
2024/02/07 00:24:22;;;;;;;227.27;58.23;;;;;;;;;;4993429;28;20432;-44
2024/02/07 00:26:48;;;;;;;229.00;60.27;;;;;;;;;;4994503;28;20411;-44
2024/02/07 00:29:14;;;;;;;228.85;58.42;;;;;;;;;;4993238;28;20810;-44
2024/02/07 00:31:40;;;;;;;230.60;61.10;;;;;;;;;;4992714;28;20226;-44
2024/02/07 00:34:06;;;;;;;226.97;59.00;;;;;;;;;;4993890;28;20455;-44
2024/02/07 00:36:32;;;;;;;228.85;60.25;;;;;;;;;;4993839;28;20412;-44
2024/02/07 00:38:59;;;;;;;229.73;60.47;;;;;;;;;;4993570;28;20339;-44
2024/02/07 00:41:26;;;;;;;228.85;60.38;;;;;;;;;;4992287;28;20459;-44
2024/02/07 00:43:56;;;;;;;229.85;61.08;;;;;;;;;;4989050;28;20548;-43
2024/02/07 00:46:23;;;;;;;228.02;59.13;;;;;;;;;;4991463;28;20180;-44
2024/02/07 00:48:49;;;;;;;229.95;61.97;;;;;;;;;;4992464;28;20215;-44
2024/02/07 00:51:15;;;;;;;227.67;59.90;;;;;;;;;;4991599;28;20229;-44
2024/02/07 00:53:41;;;;;;;227.10;58.67;;;;;;;;;;4986715;28;20424;-44
2024/02/07 00:56:07;;;;;;;229.13;59.17;;;;;;;;;;4989363;28;20955;-44
2024/02/07 00:58:34;;;;;;;230.97;61.43;;;;;;;;;;4989070;28;20970;-44
2024/02/07 01:01:00;;;;;;;230.50;61.38;;;;;;;;;;4989772;28;20803;-44
2024/02/07 01:03:26;;;;;;;228.70;61.03;;;;;;;;;;4992511;28;20180;-44
2024/02/07 01:05:52;;;;;;;227.20;58.60;;;;;;;;;;4992865;28;20177;-44
2024/02/07 01:08:18;;;;;;;229.43;60.65;;;;;;;;;;4992587;28;20412;-44
2024/02/07 01:10:44;;;;;;;232.70;63.70;;;;;;;;;;4992197;28;20180;-44
2024/02/07 01:13:10;;;;;;;215.88;60.40;;;;;;;;;;4991841;28;20407;-44
2024/02/07 01:15:36;;;;;;;205.27;59.53;;;;;;;;;;4992956;28;20555;-44
2024/02/07 01:18:02;;;;;;;225.50;61.23;;;;;;;;;;4992768;28;20499;-44
2024/02/07 01:20:28;;;;;;;227.40;62.88;;;;;;;;;;4985839;28;20488;-45
2024/02/07 01:22:54;;;;;;;225.82;60.90;;;;;;;;;;4992178;28;20193;-45
2024/02/07 01:25:20;;;;;;;224.10;60.40;;;;;;;;;;4992664;28;20676;-44
2024/02/07 01:27:46;;;;;;;227.13;58.33;;;;;;;;;;4992561;28;20792;-44
2024/02/07 01:30:12;;;;;;;230.73;61.63;;;;;;;;;;4992787;28;20408;-44
2024/02/07 01:32:42;;;;;;;230.90;63.47;;;;;;;;;;4992021;28;20428;-44
2024/02/07 01:35:13;;;;;;;227.38;59.33;;;;;;;;;;4992492;28;20259;-44
2024/02/07 01:37:40;;;;;;;229.38;61.15;;;;;;;;;;4992573;28;20633;-44
2024/02/07 01:40:09;;;;;;;230.23;63.35;;;;;;;;;;4992094;28;20204;-44
2024/02/07 01:42:35;;;;;;;228.57;62.28;;;;;;;;;;4995280;28;20185;-45
2024/02/07 01:45:20;;;;;;;226.20;59.28;;;;;;;;;;4996122;28;20231;-44
2024/02/07 01:47:46;;;;;;;226.48;59.08;;;;;;;;;;4986155;28;20173;-45
2024/02/07 01:50:12;;;;;;;227.77;59.43;;;;;;;;;;4993611;28;20267;-45
2024/02/07 01:52:39;;;;;;;227.98;59.95;;;;;;;;;;4995574;28;20419;-45
2024/02/07 01:55:05;;;;;;;227.00;59.97;;;;;;;;;;4996001;28;20192;-45
2024/02/07 01:57:32;;;;;;;227.73;61.00;;;;;;;;;;4992833;28;20184;-45
2024/02/07 01:59:59;;;;;;;226.02;58.35;;;;;;;;;;4996086;28;20658;-44
2024/02/07 02:02:25;;;;;;;225.88;59.83;;;;;;;;;;4994319;28;20232;-46
2024/02/07 02:04:52;;;;;;;228.52;62.25;;;;;;;;;;4994776;28;20173;-45
2024/02/07 02:07:18;;;;;;;228.70;62.13;;;;;;;;;;4995312;28;20648;-45
2024/02/07 02:09:45;;;;;;;227.30;61.55;;;;;;;;;;4994810;28;20581;-45
2024/02/07 02:12:12;;;;;;;226.93;61.83;;;;;;;;;;4994753;28;20205;-45
2024/02/07 02:14:38;;;;;;;224.45;58.38;;;;;;;;;;4995787;28;20178;-45
2024/02/07 02:17:04;;;;;;;227.70;60.07;;;;;;;;;;4995101;28;20172;-45
2024/02/07 02:19:30;;;;;;;224.77;59.40;;;;;;;;;;4994782;28;20471;-45
2024/02/07 02:22:08;;;;;;;226.07;60.23;;;;;;;;;;4994442;28;20531;-44
2024/02/07 02:24:37;;;;;;;224.57;58.95;;;;;;;;;;4995268;28;20978;-45
2024/02/07 02:27:21;;;;;;;226.40;61.00;;;;;;;;;;4992129;28;20184;-45
2024/02/07 02:29:53;;;;;;;225.57;59.67;;;;;;;;;;4993294;28;20220;-45
2024/02/07 02:32:21;;;;;;;228.00;62.35;;;;;;;;;;4993984;28;20197;-45
2024/02/07 02:34:47;;;;;;;227.45;61.60;;;;;;;;;;4995335;28;20404;-45
2024/02/07 02:37:13;;;;;;;226.70;58.60;;;;;;;;;;4994731;28;20180;-45
2024/02/07 02:39:41;;;;;;;226.48;58.65;;;;;;;;;;4995317;28;20461;-45
2024/02/07 02:42:07;;;;;;;228.57;60.33;;;;;;;;;;4993382;28;20548;-45
2024/02/07 02:44:33;;;;;;;230.18;63.15;;;;;;;;;;4989909;28;20637;-45
2024/02/07 02:47:01;;;;;;;229.23;60.70;;;;;;;;;;4994587;28;20181;-45
2024/02/07 02:49:28;;;;;;;229.40;62.08;;;;;;;;;;4994494;28;20264;-45
2024/02/07 02:51:54;;;;;;;226.77;59.80;;;;;;;;;;4993749;28;20308;-45
2024/02/07 02:54:20;;;;;;;227.17;59.67;;;;;;;;;;4993943;28;20197;-45
2024/02/07 02:56:46;;;;;;;224.60;57.50;;;;;;;;;;4994486;28;20503;-45
2024/02/07 02:59:14;;;;;;;231.27;64.00;;;;;;;;;;4993902;28;20804;-45
2024/02/07 03:01:40;;;;;;;229.35;60.20;;;;;;;;;;4993363;28;20220;-45
2024/02/07 03:04:06;;;;;;;228.07;60.30;;;;;;;;;;4993994;28;20576;-45
2024/02/07 03:07:36;;;;;;;227.88;61.13;;;;;;;;;;4994229;28;20768;-46
2024/02/07 03:09:22;;;;;;;229.48;62.80;;;;;;;;;;4993854;28;20215;-45
2024/02/07 03:11:48;;;;;;;228.07;59.30;;;;;;;;;;4993390;28;20204;-45
2024/02/07 03:14:15;;;;;;;226.67;60.30;;;;;;;;;;4994217;28;20188;-45
2024/02/07 03:16:42;;;;;;;226.75;57.97;;;;;;;;;;4994297;28;20408;-45
2024/02/07 03:19:08;;;;;;;227.15;58.85;;;;;;;;;;4994113;28;20210;-45
2024/02/07 03:21:34;;;;;;;227.60;59.78;;;;;;;;;;4993307;28;20686;-45
2024/02/07 03:24:00;;;;;;;228.30;60.63;;;;;;;;;;4993749;28;20681;-45
2024/02/07 03:26:27;;;;;;;228.23;61.08;;;;;;;;;;4993935;28;20191;-45
2024/02/07 03:28:53;;;;;;;225.32;57.92;;;;;;;;;;4993872;28;20564;-44
2024/02/07 03:31:19;;;;;;;227.07;59.07;;;;;;;;;;4992946;28;20192;-45
2024/02/07 03:33:45;;;;;;;227.88;61.28;;;;;;;;;;4994009;28;20414;-45
2024/02/07 03:36:11;;;;;;;225.38;58.17;;;;;;;;;;4994052;28;20184;-45
2024/02/07 03:38:37;;;;;;;226.83;61.00;;;;;;;;;;4993638;28;20639;-45
2024/02/07 03:41:05;;;;;;;226.07;58.42;;;;;;;;;;4993164;28;20425;-45
2024/02/07 03:43:33;;;;;;;224.75;57.35;;;;;;;;;;4985887;28;20166;-45
2024/02/07 03:46:00;;;;;;;224.35;57.83;;;;;;;;;;4993655;28;20172;-45
2024/02/07 03:48:26;;;;;;;224.73;57.97;;;;;;;;;;4992894;28;20549;-45
2024/02/07 03:50:52;;;;;;;223.27;57.20;;;;;;;;;;4993357;28;20181;-45
2024/02/07 03:53:19;;;;;;;225.05;59.05;;;;;;;;;;4993458;28;20906;-45
2024/02/07 03:55:47;;;;;;;223.38;56.65;;;;;;;;;;4993375;28;20173;-45
2024/02/07 03:58:13;;;;;;;220.02;55.20;;;;;;;;;;4993295;28;20172;-46
2024/02/07 04:00:39;;;;;;;231.27;64.57;;;;;;;;;;4991780;28;20690;-45
2024/02/07 04:03:05;;;;;;;222.97;57.07;;;;;;;;;;4993337;28;20426;-45
2024/02/07 04:05:32;;;;;;;220.73;55.30;;;;;;;;;;4993174;28;20400;-45
2024/02/07 04:07:58;;;;;;;221.98;55.90;;;;;;;;;;4991752;28;20181;-45
2024/02/07 04:10:24;;;;;;;221.20;55.83;;;;;;;;;;4992591;28;20269;-45
2024/02/07 05:15:52;;;;;;;222.00;59.38;;;;;;;;;;4993187;28;20235;-45
2024/02/07 05:18:19;;;;;;;221.40;58.45;;;;;;;;;;4995946;28;20187;-45
2024/02/07 05:20:45;;;;;;;227.38;64.60;;;;;;;;;;4995557;28;20576;-45
2024/02/07 05:23:11;;;;;;;221.90;59.50;;;;;;;;;;4995899;28;20177;-45
2024/02/07 05:25:37;;;;;;;221.50;59.70;;;;;;;;;;4995909;28;20482;-46
2024/02/07 05:28:04;;;;;;;221.57;59.20;;;;;;;;;;4995975;28;20440;-45
2024/02/07 05:30:30;;;;;;;220.88;59.17;;;;;;;;;;4995163;28;20417;-46
2024/02/07 05:32:56;;;;;;;221.17;58.57;;;;;;;;;;4991823;28;20300;-45
2024/02/07 05:35:22;;;;;;;223.05;59.92;;;;;;;;;;4994568;28;20404;-45
2024/02/07 05:37:49;;;;;;;223.47;59.80;;;;;;;;;;4995894;28;20711;-46
2024/02/07 05:40:15;;;;;;;223.85;61.10;;;;;;;;;;4995452;28;20518;-46
2024/02/07 05:42:41;;;;;;;221.63;59.75;;;;;;;;;;4995206;28;20203;-46
2024/02/07 05:45:08;;;;;;;219.47;57.67;;;;;;;;;;4995757;28;20188;-45
2024/02/07 05:47:34;;;;;;;222.30;58.88;;;;;;;;;;4995736;28;20439;-45
2024/02/07 05:50:00;;;;;;;219.90;59.30;;;;;;;;;;4995719;28;20395;-45
2024/02/07 05:52:26;;;;;;;220.57;58.77;;;;;;;;;;4994601;28;20447;-45
2024/02/07 05:54:55;;;;;;;220.87;58.87;;;;;;;;;;4995543;28;20412;-46
2024/02/07 05:57:21;;;;;;;227.90;65.65;;;;;;;;;;4993121;28;20527;-44
2024/02/07 05:59:47;;;;;;;219.67;58.30;;;;;;;;;;4999072;28;20291;-45
2024/02/07 06:02:13;;;;;;;222.80;60.70;;;;;;;;;;4994543;28;20439;-44
2024/02/07 06:04:39;;;;;;;220.87;59.17;;;;;;;;;;4992212;28;20419;-45
2024/02/07 06:07:08;;;;;;;221.20;58.50;;;;;;;;;;4990366;28;20928;-45
2024/02/07 06:09:34;;;;;;;222.20;60.13;;;;;;;;;;4987663;28;20212;-45
2024/02/07 06:12:01;;;;;;;220.82;58.45;;;;;;;;;;4994216;28;20196;-45
2024/02/07 06:14:27;;;;;;;218.82;58.72;;;;;;;;;;4995112;28;20475;-45
2024/02/07 06:16:53;;;;;;;222.48;60.45;;;;;;;;;;4992773;28;20200;-47
2024/02/07 06:19:19;;;;;;;220.40;58.47;;;;;;;;;;4993713;28;20673;-45
2024/02/07 06:21:45;;;;;;;218.80;58.20;;;;;;;;;;4993427;28;20211;-44
2024/02/07 06:24:11;;;;;;;220.63;59.80;;;;;;;;;;4993841;28;20432;-43
2024/02/07 06:26:37;;;;;;;219.73;58.27;;;;;;;;;;4993899;28;20499;-45
2024/02/07 06:29:03;;;;;;;219.23;58.77;;;;;;;;;;4993188;28;20427;-45
2024/02/07 06:31:29;;;;;;;218.37;58.67;;;;;;;;;;4993388;28;20432;-45
2024/02/07 06:33:55;;;;;;;223.17;60.70;;;;;;;;;;4993822;28;20416;-45
2024/02/07 06:36:21;;;;;;;220.10;58.53;;;;;;;;;;4993926;28;20404;-46
2024/02/07 06:38:46;;;;;;;220.82;60.17;;;;;;;;;;4993852;28;20179;-44
2024/02/07 06:41:12;;;;;;;235.93;71.20;;;;;;;;;;4986465;28;20541;-45
2024/02/07 06:43:38;;;;;;;218.53;58.27;;;;;;;;;;4987884;28;20424;-45
2024/02/07 06:46:04;;;;;;;219.40;58.67;;;;;;;;;;4984059;28;20955;-46
2024/02/07 06:48:30;;;;;;;219.55;58.83;;;;;;;;;;4993043;28;20411;-44
2024/02/07 06:50:56;;;;;;;217.73;58.38;;;;;;;;;;4987276;28;20177;-45
2024/02/07 06:53:22;;;;;;;219.00;58.17;;;;;;;;;;4992335;28;20165;-44
2024/02/07 06:55:49;;;;;;;218.57;58.83;;;;;;;;;;4993975;28;20773;-45
2024/02/07 06:58:16;;;;;;;220.65;59.60;;;;;;;;;;4993756;28;20417;-44
2024/02/07 07:00:42;;;;;;;223.10;61.42;;;;;;;;;;4992933;28;20697;-44
2024/02/07 07:03:08;;;;;;;219.70;57.80;;;;;;;;;;4993756;28;20235;-44
2024/02/07 07:05:34;;;;;;;220.35;60.35;;;;;;;;;;4993558;28;20219;-45
2024/02/07 07:08:00;;;;;;;216.87;56.77;;;;;;;;;;4986635;28;20709;-45
2024/02/07 07:10:26;;;;;;;220.83;60.73;;;;;;;;;;4992487;28;20455;-44
2024/02/07 07:12:52;;;;;;;219.15;59.65;;;;;;;;;;4993194;28;20467;-44
2024/02/07 07:15:20;;;;;;;221.02;59.15;;;;;;;;;;4993397;28;20193;-45
2024/02/07 07:17:46;;;;;;;217.25;57.13;;;;;;;;;;4992158;28;20184;-45
2024/02/07 07:20:12;;;;;;;219.70;58.95;;;;;;;;;;4993341;28;20726;-44
2024/02/07 07:22:38;;;;;;;216.87;56.63;;;;;;;;;;4992462;28;20201;-45
2024/02/07 07:25:04;;;;;;;218.63;57.73;;;;;;;;;;4991947;28;20486;-45
2024/02/07 07:27:30;;;;;;;217.80;57.22;;;;;;;;;;4993080;28;20416;-45
2024/02/07 07:29:57;;;;;;;219.05;56.63;;;;;;;;;;4991931;28;20181;-45
2024/02/07 07:32:24;;;;;;;219.70;57.80;;;;;;;;;;4992173;28;20217;-45
2024/02/07 07:34:50;;;;;;;218.95;57.00;;;;;;;;;;4991985;28;20184;-44
2024/02/07 07:37:18;;;;;;;216.87;57.23;;;;;;;;;;4993397;28;20181;-44
2024/02/07 07:39:45;;;;;;;215.13;56.72;;;;;;;;;;4991330;28;20865;-45
2024/02/07 07:42:11;;;;;;;216.95;56.60;;;;;;;;;;4992316;28;20208;-46
2024/02/07 07:44:38;;;;;;;216.93;56.00;;;;;;;;;;4992835;28;20173;-44
2024/02/07 07:47:04;;;;;;;219.77;57.67;;;;;;;;;;4993005;28;20563;-45
2024/02/07 07:49:30;;;;;;;219.80;57.63;;;;;;;;;;4992717;28;20173;-45
2024/02/07 07:51:56;;;;;;;218.67;55.83;;;;;;;;;;4992267;28;20572;-45
2024/02/07 07:54:22;;;;;;;220.97;58.80;;;;;;;;;;4991667;28;20408;-45
2024/02/07 07:56:48;;;;;;;223.70;59.55;;;;;;;;;;4992361;28;20416;-45
2024/02/07 07:59:14;;;;;;;220.38;56.70;;;;;;;;;;4991905;28;20208;-44
2024/02/07 08:01:42;;;;;;;219.17;55.83;;;;;;;;;;4991954;28;20308;-44
2024/02/07 08:04:08;;;;;;;221.65;57.63;;;;;;;;;;4992631;28;20411;-45
2024/02/07 08:06:35;;;;;;;219.27;56.90;;;;;;;;;;4992477;28;20165;-45
2024/02/07 08:09:02;;;;;;;220.10;55.58;;;;;;;;;;4992721;28;20412;-44
2024/02/07 08:11:28;;;;;;;222.32;57.90;;;;;;;;;;4990410;28;20203;-45
2024/02/07 08:13:54;;;;;;;218.98;55.53;;;;;;;;;;4992515;28;20176;-44
2024/02/07 08:16:20;;;;;;;220.47;57.63;;;;;;;;;;4992427;28;20177;-45
2024/02/07 08:18:46;;;;;;;220.97;56.63;;;;;;;;;;4992489;28;20408;-45
2024/02/07 08:21:12;;;;;;;223.02;58.33;;;;;;;;;;4991531;28;20959;-45
2024/02/07 08:23:38;;;;;;;223.15;58.38;;;;;;;;;;4992093;28;20179;-46
2024/02/07 08:26:05;;;;;;;222.30;58.27;;;;;;;;;;4992348;28;20737;-45
2024/02/07 08:28:31;;;;;;;222.27;57.80;;;;;;;;;;4984220;28;20400;-45
2024/02/07 08:30:57;;;;;;;222.87;58.43;;;;;;;;;;4989744;28;20533;-46
2024/02/07 08:33:23;;;;;;;221.33;57.63;;;;;;;;;;4992029;28;20867;-44
2024/02/07 08:35:49;;;;;;;224.77;59.47;;;;;;;;;;4992390;28;20797;-45
2024/02/07 08:38:15;;;;;;;224.00;57.90;;;;;;;;;;4992120;28;20409;-45
2024/02/07 08:40:41;;;;;;;233.60;67.55;;;;;;;;;;4991094;28;20200;-45
2024/02/07 08:43:07;;;;;;;224.73;60.03;;;;;;;;;;4991865;28;20244;-44
2024/02/07 08:45:34;;;;;;;227.60;61.47;;;;;;;;;;4992014;28;20439;-45
2024/02/07 08:48:00;;;;;;;224.63;60.47;;;;;;;;;;4992140;28;20184;-44
2024/02/07 08:50:26;;;;;;;226.05;60.72;;;;;;;;;;4987898;28;20773;-44
2024/02/07 08:52:52;;;;;;;223.33;59.40;;;;;;;;;;4992821;28;20288;-44
2024/02/07 08:55:18;;;;;;;224.17;59.30;;;;;;;;;;4994151;28;20778;-45
2024/02/07 08:57:44;;;;;;;225.07;61.90;;;;;;;;;;4993884;28;20758;-44
2024/02/07 09:00:10;;;;;;;224.43;60.72;;;;;;;;;;4987928;28;20456;-45
2024/02/07 09:02:36;;;;;;;225.00;60.13;;;;;;;;;;4992536;28;20685;-45
2024/02/07 09:05:04;;;;;;;222.85;58.75;;;;;;;;;;4998006;28;20188;-47
2024/02/07 09:07:33;;;;;;;224.90;59.28;;;;;;;;;;4992046;28;20177;-45
2024/02/07 09:09:59;;;;;;;230.75;64.60;;;;;;;;;;4992555;28;20184;-46
2024/02/07 09:12:27;;;;;;;227.20;61.63;;;;;;;;;;4994895;28;20274;-46
2024/02/07 09:14:55;;;;;;;227.57;61.90;;;;;;;;;;4992709;28;20177;-45
2024/02/07 09:17:21;;;;;;;225.20;59.45;;;;;;;;;;4996029;28;20195;-45
2024/02/07 09:19:47;;;;;;;224.97;61.20;;;;;;;;;;4996036;28;20572;-45
2024/02/07 09:22:13;;;;;;;228.17;62.87;;;;;;;;;;4995109;28;20508;-45
2024/02/07 09:24:40;;;;;;;229.93;62.47;;;;;;;;;;4994351;28;20456;-45
2024/02/07 09:27:06;;;;;;;225.57;60.15;;;;;;;;;;4995365;28;20222;-45
2024/02/07 09:29:32;;;;;;;224.93;60.20;;;;;;;;;;4996343;28;20584;-46
2024/02/07 09:31:58;;;;;;;231.27;64.87;;;;;;;;;;4994909;28;20788;-45
2024/02/07 09:34:24;;;;;;;225.77;60.70;;;;;;;;;;4995413;28;20420;-46
2024/02/07 09:36:50;;;;;;;228.00;62.20;;;;;;;;;;4995791;28;20415;-45
2024/02/07 09:39:19;;;;;;;225.07;59.87;;;;;;;;;;4995810;28;20519;-46
2024/02/07 09:41:46;;;;;;;227.63;62.28;;;;;;;;;;4994581;28;20432;-46
2024/02/07 09:44:14;;;;;;;228.10;61.63;;;;;;;;;;4993264;28;20181;-46
2024/02/07 09:46:42;;;;;;;225.50;60.45;;;;;;;;;;4988213;28;20171;-45
2024/02/07 09:49:11;;;;;;;227.55;61.78;;;;;;;;;;4989281;28;20187;-46
2024/02/07 09:51:38;;;;;;;226.60;60.85;;;;;;;;;;4994882;28;20269;-46
2024/02/07 09:54:05;;;;;;;227.50;62.25;;;;;;;;;;4994620;28;20186;-46
2024/02/07 09:56:31;;;;;;;227.75;61.63;;;;;;;;;;4996030;28;20586;-46
2024/02/07 09:58:57;;;;;;;228.25;63.13;;;;;;;;;;4995669;28;20203;-46
2024/02/07 10:01:27;;;;;;;228.07;60.50;;;;;;;;;;4994179;28;20256;-45
2024/02/07 10:03:54;;;;;;;227.55;61.10;;;;;;;;;;4998536;28;20606;-46
2024/02/07 10:06:20;;;;;;;228.98;63.40;;;;;;;;;;4995632;28;20270;-46
2024/02/07 10:08:50;;;;;;;227.60;60.85;;;;;;;;;;4995993;28;20195;-45
2024/02/07 10:11:16;;;;;;;225.45;59.50;;;;;;;;;;4994856;28;20234;-46
2024/02/07 10:13:42;;;;;;;229.13;62.80;;;;;;;;;;4995753;28;20176;-47
2024/02/07 10:16:09;;;;;;;227.15;62.00;;;;;;;;;;4988908;28;20179;-46
2024/02/07 10:18:35;;;;;;;225.65;60.97;;;;;;;;;;4991182;28;20172;-45
2024/02/07 10:21:03;;;;;;;226.85;61.10;;;;;;;;;;4993619;28;20297;-45
2024/02/07 10:23:29;;;;;;;230.23;65.97;;;;;;;;;;4976058;28;20354;-45
2024/02/07 10:25:56;;;;;;;226.30;60.05;;;;;;;;;;4975862;28;20183;-45
2024/02/07 10:28:24;;;;;;;227.10;62.60;;;;;;;;;;4990645;28;20179;-45
2024/02/07 10:31:00;;;;;;;228.00;62.13;;;;;;;;;;4994408;28;20182;-45
2024/02/07 10:33:36;;;;;;;226.35;61.05;;;;;;;;;;4984510;28;20190;-46
2024/02/07 10:36:03;;;;;;;228.25;60.97;;;;;;;;;;4975419;28;20196;-46
2024/02/07 10:38:29;;;;;;;228.60;61.42;;;;;;;;;;4975323;28;20198;-46
2024/02/07 10:40:55;;;;;;;227.35;60.85;;;;;;;;;;4975014;28;20213;-45
2024/02/07 10:43:25;;;;;;;226.40;60.78;;;;;;;;;;4976238;28;20182;-45
2024/02/07 10:46:03;;;;;;;227.77;62.40;;;;;;;;;;4994066;28;20169;-44
2024/02/07 10:48:30;;;;;;;226.25;59.80;;;;;;;;;;4994244;28;20174;-45
2024/02/07 10:50:59;;;;;;;236.85;68.95;;;;;;;;;;4991707;28;20733;-44
2024/02/07 10:53:28;;;;;;;226.15;59.30;;;;;;;;;;4987275;28;20224;-44
2024/02/07 10:55:54;;;;;;;224.75;59.30;;;;;;;;;;4985391;28;20199;-44
2024/02/07 10:58:24;;;;;;;229.05;62.25;;;;;;;;;;4993630;28;20552;-44
2024/02/07 11:00:54;;;;;;;229.00;62.15;;;;;;;;;;4992977;28;20269;-45
2024/02/07 11:03:21;;;;;;;228.82;61.65;;;;;;;;;;4990247;28;20182;-46
2024/02/07 11:05:48;;;;;;;227.18;60.00;;;;;;;;;;4993855;28;20627;-44
2024/02/07 11:08:14;;;;;;;225.95;60.72;;;;;;;;;;4993684;28;20179;-44
2024/02/07 11:10:41;;;;;;;238.18;71.22;;;;;;;;;;4991690;28;20175;-45
2024/02/07 11:13:09;;;;;;;226.15;59.55;;;;;;;;;;4986714;28;20208;-44
2024/02/07 11:15:36;;;;;;;225.35;59.53;;;;;;;;;;4993551;28;20182;-44
2024/02/07 11:18:02;;;;;;;228.82;62.75;;;;;;;;;;4993622;28;20259;-45
2024/02/07 11:20:28;;;;;;;230.10;62.85;;;;;;;;;;4993030;28;20206;-49
2024/02/07 11:22:55;;;;;;;228.98;61.85;;;;;;;;;;4991435;28;20206;-46
2024/02/07 11:25:22;;;;;;;224.50;58.10;;;;;;;;;;4992525;28;20651;-45
2024/02/07 11:27:51;;;;;;;226.70;59.22;;;;;;;;;;4993599;28;20645;-44
2024/02/07 11:30:18;;;;;;;233.63;65.35;;;;;;;;;;4992307;28;20693;-44
2024/02/07 11:32:47;;;;;;;226.93;60.10;;;;;;;;;;4992283;28;20234;-46
2024/02/07 11:35:15;;;;;;;227.00;60.17;;;;;;;;;;4995342;28;20712;-44
2024/02/07 11:37:43;;;;;;;227.55;60.75;;;;;;;;;;4993068;28;20198;-45
2024/02/07 11:40:13;;;;;;;229.85;61.90;;;;;;;;;;4989795;28;20198;-46
2024/02/07 11:42:39;;;;;;;229.40;61.35;;;;;;;;;;4991616;28;20213;-44
2024/02/07 11:45:06;;;;;;;226.00;59.70;;;;;;;;;;4991785;28;20201;-44
2024/02/07 11:47:37;;;;;;;228.65;59.78;;;;;;;;;;4985395;28;20176;-45
2024/02/07 11:50:05;;;;;;;231.10;62.78;;;;;;;;;;4993158;28;20544;-43
2024/02/07 11:52:32;;;;;;;230.10;62.22;;;;;;;;;;4988721;28;20194;-44
2024/02/07 11:55:06;;;;;;;229.80;62.60;;;;;;;;;;4993169;28;20173;-44
2024/02/07 11:57:32;;;;;;;228.48;60.75;;;;;;;;;;4993038;28;20207;-44
2024/02/07 12:00:08;;;;;;;229.68;61.05;;;;;;;;;;4992965;28;20202;-45
2024/02/07 12:02:36;;;;;;;231.02;64.13;;;;;;;;;;4984646;28;20206;-44
2024/02/07 12:05:05;;;;;;;233.55;64.05;;;;;;;;;;4992752;28;20168;-44
2024/02/07 12:07:31;;;;;;;233.80;65.13;;;;;;;;;;4985154;28;20180;-45
2024/02/07 12:09:57;;;;;;;232.57;65.63;;;;;;;;;;4993076;28;20183;-44
2024/02/07 12:12:24;;;;;;;232.23;64.83;;;;;;;;;;4992075;28;20260;-44
2024/02/07 12:14:50;;;;;;;231.63;64.53;;;;;;;;;;4992123;28;20828;-43
2024/02/07 12:17:16;;;;;;;232.43;65.32;;;;;;;;;;4992640;28;20182;-44
2024/02/07 12:19:44;;;;;;;229.07;61.60;;;;;;;;;;4992620;28;20235;-44
2024/02/07 12:22:15;;;;;;;233.40;64.78;;;;;;;;;;4992103;28;20185;-43
2024/02/07 12:24:42;;;;;;;232.52;63.85;;;;;;;;;;4992162;28;20564;-44
2024/02/07 12:27:08;;;;;;;232.30;63.88;;;;;;;;;;4992647;28;20165;-44
2024/02/07 12:29:34;;;;;;;233.05;65.95;;;;;;;;;;4993016;28;20167;-46
2024/02/07 12:32:01;;;;;;;231.85;64.18;;;;;;;;;;4992059;28;20219;-43
2024/02/07 12:34:27;;;;;;;231.30;62.28;;;;;;;;;;4992856;28;20245;-43
2024/02/07 12:36:53;;;;;;;232.15;63.85;;;;;;;;;;4982833;28;20560;-44
2024/02/07 12:39:22;;;;;;;230.32;62.28;;;;;;;;;;4982422;28;20297;-45
2024/02/07 12:41:48;;;;;;;231.07;63.75;;;;;;;;;;4987653;28;20192;-44
2024/02/07 12:44:17;;;;;;;232.25;64.90;;;;;;;;;;4985601;28;20169;-44
2024/02/07 12:46:43;;;;;;;234.70;65.53;;;;;;;;;;4992190;28;20176;-44
2024/02/07 12:49:10;;;;;;;234.35;64.55;;;;;;;;;;4974892;28;20180;-44
2024/02/07 12:51:36;;;;;;;232.40;63.42;;;;;;;;;;4982316;28;20209;-44
2024/02/07 12:54:02;;;;;;;234.40;63.95;;;;;;;;;;4992182;28;20263;-44
2024/02/07 12:56:28;;;;;;;234.43;65.30;;;;;;;;;;4992362;28;20184;-44
2024/02/07 12:58:55;;;;;;;231.70;64.57;;;;;;;;;;4992335;28;20256;-44
2024/02/07 13:01:22;;;;;;;233.73;65.50;;;;;;;;;;4991452;28;20632;-44
2024/02/07 13:03:48;;;;;;;234.55;66.97;;;;;;;;;;4991097;28;20187;-44
2024/02/07 13:06:14;;;;;;;233.88;65.80;;;;;;;;;;4978695;28;20593;-44
2024/02/07 13:08:40;;;;;;;232.57;65.60;;;;;;;;;;4974254;28;20662;-44
2024/02/07 13:11:06;;;;;;;231.07;62.97;;;;;;;;;;4989271;28;20590;-45
2024/02/07 13:13:32;;;;;;;231.97;64.80;;;;;;;;;;4987139;28;20255;-45
2024/02/07 13:15:59;;;;;;;230.43;64.20;;;;;;;;;;4992043;28;20450;-43
2024/02/07 13:18:26;;;;;;;236.43;66.93;;;;;;;;;;4991812;28;20412;-44
2024/02/07 13:20:53;;;;;;;233.80;67.38;;;;;;;;;;4990485;28;20635;-43
2024/02/07 13:23:21;;;;;;;233.57;64.35;;;;;;;;;;4991967;28;20701;-44
2024/02/07 13:25:50;;;;;;;235.43;68.10;;;;;;;;;;4979874;28;20672;-44
2024/02/07 13:28:17;;;;;;;238.02;69.38;;;;;;;;;;4992061;28;20668;-44
2024/02/07 13:30:43;;;;;;;243.25;73.60;;;;;;;;;;4991455;28;20258;-44
2024/02/07 13:33:10;;;;;;;235.97;68.30;;;;;;;;;;4992289;28;20248;-44
2024/02/07 13:35:35;;;;;;;235.10;67.25;;;;;;;;;;4992298;28;20408;-43
2024/02/07 13:38:02;;;;;;;239.27;74.10;;;;;;;;;;4994544;28;20279;-44
2024/02/07 13:40:28;;;;;;;243.02;74.80;;;;;;;;;;4995099;28;20469;-46
2024/02/07 13:42:54;;;;;;;239.57;71.57;;;;;;;;;;4988710;28;20192;-45
2024/02/07 13:45:20;;;;;;;237.80;71.78;;;;;;;;;;4995660;28;20403;-43
2024/02/07 13:47:46;;;;;;;237.18;70.88;;;;;;;;;;4995836;28;20609;-43
2024/02/07 13:50:12;;;;;;;237.70;70.38;;;;;;;;;;4995779;28;20184;-44
2024/02/07 13:52:38;;;;;;;239.85;73.75;;;;;;;;;;4995271;28;20689;-43
2024/02/07 13:55:05;;;;;;;236.23;68.57;;;;;;;;;;5000556;28;20597;-42
2024/02/07 13:57:31;;;;;;;238.57;71.75;;;;;;;;;;4995957;28;20184;-44
2024/02/07 13:59:56;;;;;;;234.97;68.77;;;;;;;;;;4985863;28;20212;-43
2024/02/07 14:02:22;;;;;;;234.10;69.50;;;;;;;;;;4977751;28;20436;-43
2024/02/07 14:04:49;;;;;;;234.37;66.77;;;;;;;;;;4977367;28;20409;-43
2024/02/07 14:07:15;;;;;;;233.43;68.07;;;;;;;;;;4993917;28;20416;-43
2024/02/07 14:09:41;;;;;;;234.88;68.55;;;;;;;;;;4995844;28;20262;-44
2024/02/07 14:12:07;;;;;;;237.25;73.35;;;;;;;;;;4994625;28;20215;-44
2024/02/07 14:14:33;;;;;;;237.02;70.30;;;;;;;;;;4985130;28;20184;-44
2024/02/07 14:16:59;;;;;;;235.87;68.87;;;;;;;;;;4995149;28;20184;-45
2024/02/07 14:19:25;;;;;;;238.60;71.03;;;;;;;;;;4979959;28;20749;-44
2024/02/07 14:21:51;;;;;;;236.75;68.90;;;;;;;;;;4994195;28;20181;-44
2024/02/07 14:24:17;;;;;;;236.87;68.90;;;;;;;;;;4995233;28;20185;-44
2024/02/07 14:26:43;;;;;;;238.93;73.38;;;;;;;;;;4985743;28;20412;-44
2024/02/07 14:29:09;;;;;;;240.20;73.20;;;;;;;;;;4989559;28;20529;-44
2024/02/07 14:31:35;;;;;;;235.43;70.97;;;;;;;;;;4987294;28;20459;-44
2024/02/07 14:34:01;;;;;;;236.67;69.97;;;;;;;;;;4987161;28;20418;-43
2024/02/07 14:36:27;;;;;;;234.33;70.57;;;;;;;;;;4981517;28;20420;-44
2024/02/07 14:38:52;;;;;;;235.43;69.97;;;;;;;;;;4995164;28;20410;-44
2024/02/07 14:41:22;;;;;;;238.17;74.93;;;;;;;;;;4992544;28;20437;-44
2024/02/07 14:43:48;;;;;;;234.80;71.82;;;;;;;;;;4994920;28;20420;-44
2024/02/07 14:46:14;;;;;;;233.77;68.85;;;;;;;;;;4995621;28;20203;-43
2024/02/07 14:48:40;;;;;;;235.13;71.07;;;;;;;;;;4993325;28;20267;-44
2024/02/07 14:51:06;;;;;;;235.30;71.93;;;;;;;;;;4994302;28;20412;-44
2024/02/07 14:53:32;;;;;;;234.45;70.72;;;;;;;;;;4987226;28;20420;-45
2024/02/07 14:55:59;;;;;;;233.52;69.68;;;;;;;;;;4979659;28;20180;-45
2024/02/07 14:58:26;;;;;;;235.15;70.30;;;;;;;;;;4993866;28;20188;-44
2024/02/07 15:00:52;;;;;;;235.00;70.05;;;;;;;;;;4989217;28;20616;-43
2024/02/07 15:03:21;;;;;;;237.73;75.00;;;;;;;;;;4984165;28;20210;-43